createdAt,value
2022-10-07T03:11:42.876Z,3.85
2022-10-07T03:15:00.653Z,4.15
2022-10-07T03:17:37.991Z,4.32
2022-10-07T03:20:24.759Z,4.32
2022-10-07T03:27:57.797Z,4.50
2022-10-07T04:50:38.987Z,5.13
2022-10-07T05:34:22.604Z,5.90
2022-10-07T05:37:50.945Z,6.22
2022-10-07T05:59:38.477Z,6.22
2022-10-07T06:02:42.708Z,6.47
2022-10-07T06:06:30.826Z,6.82
2022-10-07T07:07:01.743Z,6.22
2022-10-07T07:09:33.137Z,6.13
2022-10-07T07:12:03.402Z,6.53
2022-10-07T07:28:02.548Z,5.53
2022-10-07T07:33:54.912Z,5.78
2022-10-07T07:36:53.787Z,6.70
2022-10-07T07:39:25.692Z,5.10
2022-10-07T07:42:05.780Z,5.63
2022-10-07T07:44:34.889Z,5.03
2022-10-07T08:10:31.160Z,5.20
2022-10-07T08:17:09.293Z,4.65
2022-10-07T08:19:42.801Z,4.95
2022-10-07T08:22:13.789Z,4.47
2022-10-07T08:25:19.349Z,4.70
2022-10-07T08:27:54.310Z,5.05
2022-10-07T08:42:39.976Z,4.67
2022-10-07T09:01:20.770Z,3.63
2022-10-07T09:04:24.149Z,3.80
2022-10-07T09:11:26.000Z,3.75
2022-10-07T09:33:34.069Z,4.35
2022-10-07T09:36:14.275Z,3.53
2022-10-07T09:39:08.356Z,2.97
2022-10-07T09:41:42.356Z,3.13
2022-10-07T09:44:18.606Z,3.40
2022-10-07T11:26:34.691Z,2.08
2022-10-07T12:06:26.282Z,1.52
2022-10-07T12:09:07.218Z,1.80
2022-10-07T12:34:41.617Z,1.85
2022-10-07T12:37:41.354Z,1.70
2022-10-07T12:40:22.550Z,1.95
2022-10-07T12:43:00.520Z,2.38
2022-10-07T12:45:30.412Z,1.48
2022-10-07T12:48:01.717Z,1.60
2022-10-07T12:50:31.838Z,1.75
2022-10-07T12:53:03.934Z,1.73
2022-10-07T12:55:39.004Z,1.52
2022-10-07T12:58:53.780Z,1.90
2022-10-07T13:01:46.788Z,1.50
2022-10-07T13:04:46.059Z,1.58
2022-10-07T13:07:46.235Z,1.70
2022-10-07T13:10:58.640Z,1.73
2022-10-07T13:13:40.987Z,1.50
2022-10-07T13:26:30.613Z,2.00
2022-10-07T13:29:08.560Z,1.73
2022-10-07T13:31:36.485Z,1.50
2022-10-07T13:34:17.965Z,1.33
2022-10-07T13:36:45.286Z,1.45
2022-10-07T13:39:18.566Z,1.65
2022-10-07T13:41:49.014Z,1.40
2022-10-07T13:44:20.477Z,1.60
2022-10-07T13:47:15.442Z,2.22
2022-10-07T13:49:50.200Z,1.90
2022-10-07T13:52:39.634Z,1.55
2022-10-07T13:55:25.498Z,1.38
2022-10-07T13:57:57.347Z,1.30
2022-10-07T14:02:53.353Z,1.50
2022-10-07T14:05:28.586Z,1.42
2022-10-07T14:08:11.228Z,1.08
2022-10-07T14:11:04.866Z,1.27
2022-10-07T14:13:34.356Z,1.52
2022-10-07T14:16:01.540Z,1.30
2022-10-07T14:18:31.273Z,1.10
2022-10-07T14:21:20.092Z,2.03
2022-10-07T14:24:10.608Z,1.30
2022-10-07T14:26:46.328Z,1.10
2022-10-07T14:29:37.913Z,1.45
2022-10-07T14:32:40.246Z,1.40
2022-10-07T14:35:23.967Z,1.40
2022-10-07T14:37:51.195Z,1.27
2022-10-07T14:40:23.456Z,1.33
2022-10-07T14:45:22.494Z,1.20
2022-10-07T14:47:49.860Z,1.35
2022-10-07T14:55:13.408Z,1.45
2022-10-07T14:57:41.126Z,1.33
2022-10-07T15:03:36.209Z,1.70
2022-10-07T15:06:31.685Z,1.63
2022-10-07T15:14:12.903Z,1.40
2022-10-07T15:21:18.549Z,1.55
2022-10-07T15:37:21.272Z,2.00
2022-10-07T15:39:48.759Z,2.22
2022-10-07T15:42:16.258Z,1.50
2022-10-07T15:44:44.529Z,2.20
2022-10-07T15:47:13.420Z,2.08
2022-10-07T15:49:40.982Z,2.38
2022-10-07T15:52:09.058Z,2.10
2022-10-07T15:54:36.982Z,2.00
2022-10-07T15:57:27.328Z,2.72
2022-10-07T16:00:03.919Z,2.67
2022-10-07T16:02:39.144Z,2.42
2022-10-07T16:05:06.791Z,2.40
2022-10-07T16:07:34.081Z,2.30
2022-10-07T16:10:01.579Z,2.55
2022-10-07T16:12:28.787Z,2.72
2022-10-07T16:15:03.804Z,2.30
2022-10-07T16:17:30.942Z,2.85
2022-10-07T16:20:07.676Z,2.03
2022-10-07T16:23:12.476Z,2.72
2022-10-07T16:25:39.644Z,3.10
2022-10-07T16:28:25.402Z,3.30
2022-10-07T16:30:52.713Z,3.08
2022-10-07T16:33:19.914Z,3.30
2022-10-07T16:35:47.063Z,3.00
2022-10-07T16:38:14.299Z,3.72
2022-10-07T16:40:52.893Z,3.60
2022-10-07T16:43:20.332Z,3.13
2022-10-07T16:45:47.680Z,4.10
2022-10-07T16:48:17.412Z,4.40
2022-10-07T16:50:48.864Z,5.18
2022-10-07T16:53:16.051Z,6.37
2022-10-07T16:55:43.358Z,13.88
2022-10-07T16:58:10.471Z,12.05
2022-10-07T17:00:37.906Z,11.63
2022-10-07T17:03:10.455Z,10.80
2022-10-07T17:05:39.232Z,9.40
2022-10-07T17:08:06.620Z,9.65
2022-10-07T17:10:33.924Z,9.38
2022-10-07T17:13:04.168Z,9.73
2022-10-07T17:15:31.805Z,9.82
2022-10-07T17:17:59.035Z,10.18
2022-10-07T17:20:26.416Z,10.45
2022-10-07T17:22:54.407Z,9.32
2022-10-07T17:25:22.276Z,10.40
2022-10-07T17:27:50.041Z,8.70
2022-10-07T17:30:17.742Z,9.70
2022-10-07T17:32:45.611Z,10.15
2022-10-07T17:35:13.253Z,10.23
2022-10-07T17:37:41.105Z,10.35
2022-10-07T18:12:15.392Z,8.45
2022-10-07T18:31:21.938Z,9.90
2022-10-07T18:33:49.178Z,10.68
2022-10-07T18:36:19.268Z,12.07
2022-10-07T18:38:47.020Z,11.57
2022-10-07T18:41:17.158Z,11.38
2022-10-07T18:43:46.143Z,12.40
2022-10-07T18:46:19.033Z,11.88
2022-10-07T18:48:57.540Z,11.20
2022-10-07T18:51:28.654Z,12.02
2022-10-07T18:53:55.732Z,12.55
2022-10-07T18:56:24.301Z,13.30
2022-10-07T18:58:53.305Z,12.48
2022-10-07T19:01:27.774Z,12.95
2022-10-07T19:03:58.832Z,12.50
2022-10-07T19:06:27.132Z,12.20
2022-10-07T19:09:00.314Z,12.52
2022-10-07T19:11:30.404Z,11.93
2022-10-07T19:13:59.243Z,13.10
2022-10-07T19:16:38.637Z,13.32
2022-10-07T19:19:13.798Z,13.90
2022-10-07T19:21:41.950Z,13.80
2022-10-07T19:24:09.185Z,12.25
2022-10-07T19:26:44.572Z,12.07
2022-10-07T19:29:13.847Z,13.98
2022-10-07T19:31:45.586Z,13.85
2022-10-07T19:34:18.228Z,13.02
2022-10-07T19:39:19.737Z,11.68
2022-10-07T19:41:48.279Z,11.55
2022-10-07T19:44:16.401Z,10.00
2022-10-07T19:46:44.235Z,11.00
2022-10-07T19:49:12.589Z,11.15
2022-10-07T19:51:41.875Z,10.65
2022-10-07T19:54:12.040Z,10.85
2022-10-07T19:56:41.521Z,10.43
2022-10-07T19:59:12.275Z,10.27
2022-10-07T20:01:43.819Z,10.52
2022-10-07T20:04:14.346Z,10.65
2022-10-07T20:06:42.416Z,10.82
2022-10-07T20:09:15.062Z,10.55
2022-10-07T20:11:43.098Z,10.63
2022-10-07T20:14:10.989Z,10.73
2022-10-07T20:16:39.258Z,10.48
2022-10-07T20:19:12.946Z,10.45
2022-10-07T20:21:40.338Z,11.13
2022-10-07T20:24:09.598Z,10.55
2022-10-07T20:26:38.792Z,10.40
2022-10-07T20:29:10.321Z,10.57
2022-10-07T20:31:42.240Z,11.15
2022-10-07T20:34:15.601Z,11.40
2022-10-07T20:36:43.339Z,11.55
2022-10-07T20:39:38.177Z,11.00
2022-10-07T20:42:22.099Z,11.90
2022-10-07T20:44:50.914Z,10.95
2022-10-07T20:47:19.656Z,12.75
2022-10-07T20:49:48.681Z,11.63
2022-10-07T20:52:21.076Z,11.43
2022-10-07T20:57:21.460Z,10.65
2022-10-07T20:59:48.955Z,10.93
2022-10-07T21:02:18.892Z,10.93
2022-10-07T21:04:47.803Z,12.68
2022-10-07T21:07:17.234Z,11.05
2022-10-07T21:09:44.810Z,11.32
2022-10-07T21:12:15.957Z,11.88
2022-10-07T21:14:44.235Z,11.45
2022-10-07T21:17:12.269Z,12.48
2022-10-07T21:19:40.166Z,12.10
2022-10-07T21:22:07.625Z,13.07
2022-10-07T21:24:35.443Z,12.57
2022-10-07T21:27:06.524Z,12.52
2022-10-07T21:29:37.733Z,13.02
2022-10-07T21:32:23.053Z,12.30
2022-10-07T21:37:18.768Z,12.68
2022-10-07T21:39:46.257Z,11.77
2022-10-07T21:42:15.796Z,12.20
2022-10-07T21:44:44.447Z,12.38
2022-10-07T21:47:14.510Z,12.10
2022-10-07T21:49:42.595Z,13.80
2022-10-07T21:52:12.173Z,12.77
2022-10-07T21:54:56.824Z,12.95
2022-10-07T21:57:27.313Z,12.77
2022-10-07T22:01:53.469Z,13.45
2022-10-07T22:04:21.025Z,13.57
2022-10-07T22:07:06.842Z,13.75
2022-10-07T22:09:41.921Z,13.82
2022-10-07T22:12:09.683Z,13.98
2022-10-07T22:14:37.826Z,15.40
2022-10-07T22:17:05.048Z,14.35
2022-10-07T22:19:32.286Z,15.25
2022-10-07T22:21:59.780Z,15.18
2022-10-07T22:24:26.941Z,16.27
2022-10-07T22:26:54.225Z,16.23
2022-10-07T22:29:21.855Z,16.42
2022-10-07T22:31:49.235Z,17.48
2022-10-07T22:34:35.384Z,17.50
2022-10-07T22:37:03.817Z,16.13
2022-10-07T22:39:33.785Z,16.80
2022-10-07T22:42:01.490Z,17.00
2022-10-07T22:44:28.899Z,16.98
2022-10-07T22:47:00.596Z,17.17
2022-10-07T22:49:30.277Z,16.40
2022-10-07T22:52:00.187Z,17.25
2022-10-07T22:54:28.277Z,16.92
2022-10-07T22:56:55.801Z,17.50
2022-10-07T22:59:22.982Z,16.50
2022-10-07T23:01:50.243Z,16.77
2022-10-07T23:04:19.530Z,16.60
2022-10-07T23:06:46.833Z,18.00
2022-10-07T23:09:14.381Z,16.08
2022-10-07T23:11:41.857Z,18.20
2022-10-07T23:14:09.228Z,16.75
2022-10-07T23:16:36.771Z,17.48
2022-10-07T23:19:04.116Z,18.33
2022-10-07T23:21:34.775Z,17.67
2022-10-07T23:24:07.431Z,17.92
2022-10-07T23:26:36.804Z,17.52
2022-10-07T23:29:05.049Z,17.88
2022-10-07T23:31:33.205Z,18.48
2022-10-07T23:34:02.207Z,17.95
2022-10-07T23:36:30.569Z,18.92
2022-10-07T23:39:00.466Z,15.73
2022-10-07T23:41:30.673Z,16.52
2022-10-07T23:44:02.002Z,17.90
2022-10-07T23:46:33.938Z,17.10
2022-10-07T23:49:02.111Z,17.10
2022-10-07T23:51:32.447Z,16.65
2022-10-07T23:54:02.852Z,18.25
2022-10-07T23:56:31.562Z,15.73
2022-10-07T23:58:58.911Z,15.55
